createdAt,value
2019-02-04T00:00:42.903Z,33.25
2019-02-04T00:03:44.206Z,33.28
2019-02-04T00:06:45.924Z,33.28
2019-02-04T00:09:47.312Z,33.29
2019-02-04T00:12:48.563Z,33.26
2019-02-04T00:15:50.383Z,33.29
2019-02-04T00:18:51.755Z,33.30
2019-02-04T00:21:53.099Z,33.27
2019-02-04T00:24:54.366Z,33.30
2019-02-04T00:27:55.803Z,33.29
2019-02-04T00:30:57.035Z,33.29
2019-02-04T00:33:58.411Z,33.31
2019-02-04T00:36:59.840Z,33.32
2019-02-04T00:40:01.323Z,33.30
2019-02-04T00:43:02.767Z,33.33
2019-02-04T00:46:04.215Z,33.31
2019-02-04T00:49:05.985Z,33.33
2019-02-04T00:52:07.439Z,33.31
2019-02-04T00:55:09.078Z,33.32
2019-02-04T00:58:10.442Z,33.32
2019-02-04T01:01:11.779Z,33.33
2019-02-04T01:04:13.180Z,33.36
2019-02-04T01:07:14.599Z,33.36
2019-02-04T01:10:18.560Z,33.36
2019-02-04T01:13:20.019Z,33.36
2019-02-04T01:16:21.399Z,33.36
2019-02-04T01:19:22.783Z,33.38
2019-02-04T01:22:24.224Z,33.38
2019-02-04T01:25:25.543Z,33.36
2019-02-04T01:28:26.935Z,33.39
2019-02-04T01:31:28.562Z,33.39
2019-02-04T01:34:29.935Z,33.41
2019-02-04T01:37:31.182Z,33.40
2019-02-04T01:40:32.823Z,33.41
2019-02-04T01:43:34.199Z,33.41
2019-02-04T01:46:35.627Z,33.41
2019-02-04T01:49:37.007Z,33.41
2019-02-04T01:52:38.563Z,33.43
2019-02-04T01:55:39.988Z,33.44
2019-02-04T01:58:41.262Z,33.42
2019-02-04T02:01:42.692Z,33.45
2019-02-04T02:04:43.986Z,33.43
2019-02-04T02:07:45.510Z,33.45
2019-02-04T02:10:46.838Z,33.44
2019-02-04T02:13:48.494Z,33.45
2019-02-04T02:16:49.851Z,33.46
2019-02-04T02:19:51.222Z,33.47
2019-02-04T02:22:52.837Z,33.45
2019-02-04T02:25:54.213Z,33.46
2019-02-04T02:28:55.587Z,33.47
2019-02-04T02:31:57.018Z,33.49
2019-02-04T02:34:58.441Z,33.49
2019-02-04T02:37:59.843Z,33.49
2019-02-04T02:41:01.068Z,33.49
2019-02-04T02:44:02.443Z,33.49
2019-02-04T02:47:03.987Z,33.49
2019-02-04T02:50:06.639Z,33.49
2019-02-04T02:53:08.136Z,33.51
2019-02-04T02:56:09.975Z,33.51
2019-02-04T02:59:11.450Z,33.51
2019-02-04T03:02:12.699Z,33.53
2019-02-04T03:05:14.293Z,33.51
2019-02-04T03:08:15.711Z,33.53
2019-02-04T03:11:17.147Z,33.53
2019-02-04T03:14:18.491Z,33.55
2019-02-04T03:17:19.843Z,33.54
2019-02-04T03:20:21.335Z,33.54
2019-02-04T03:23:22.776Z,33.54
2019-02-04T03:26:24.204Z,33.56
2019-02-04T03:29:25.784Z,33.57
2019-02-04T03:32:27.324Z,33.54
2019-02-04T03:35:28.830Z,33.56
2019-02-04T03:38:30.655Z,33.57
2019-02-04T03:41:32.398Z,33.57
2019-02-04T03:44:33.783Z,33.58
2019-02-04T03:47:35.201Z,33.59
2019-02-04T03:50:36.479Z,33.59
2019-02-04T03:53:37.914Z,33.59
2019-02-04T03:56:39.139Z,33.59
2019-02-04T03:59:40.519Z,33.61
2019-02-04T04:02:41.967Z,33.60
2019-02-04T04:05:43.327Z,33.61
2019-02-04T04:08:44.836Z,33.62
2019-02-04T04:11:46.218Z,33.60
2019-02-04T04:14:47.590Z,33.60
2019-02-04T04:17:49.014Z,33.64
2019-02-04T04:20:50.708Z,33.62
2019-02-04T04:23:52.146Z,33.61
2019-02-04T04:26:53.370Z,33.62
2019-02-04T04:29:54.746Z,33.63
2019-02-04T04:32:56.181Z,33.63
2019-02-04T04:35:57.552Z,33.63
2019-02-04T04:38:58.803Z,33.65
2019-02-04T04:42:00.232Z,33.64
2019-02-04T04:45:01.729Z,33.65
2019-02-04T04:48:03.243Z,33.66
2019-02-04T04:51:04.717Z,33.65
2019-02-04T04:54:06.270Z,33.66
2019-02-04T04:57:07.627Z,33.66
2019-02-04T05:00:12.826Z,33.66
2019-02-04T05:03:14.427Z,33.67
2019-02-04T05:06:15.875Z,33.68
2019-02-04T05:09:17.128Z,33.70
2019-02-04T05:12:18.351Z,33.66
2019-02-04T05:15:21.719Z,33.67
2019-02-04T05:18:23.103Z,33.68
2019-02-04T05:21:24.479Z,33.68
2019-02-04T05:24:25.927Z,33.68
2019-02-04T05:27:27.363Z,33.67
2019-02-04T05:30:28.739Z,33.72
2019-02-04T05:33:30.206Z,33.72
2019-02-04T05:36:31.639Z,33.71
2019-02-04T05:39:32.991Z,33.71
2019-02-04T05:42:34.759Z,33.71
2019-02-04T05:45:36.508Z,33.71
2019-02-04T05:48:48.789Z,33.71
2019-02-04T05:51:41.054Z,33.72
2019-02-04T05:54:42.507Z,33.72
2019-02-04T05:57:43.835Z,33.74
2019-02-04T06:00:45.207Z,33.72
2019-02-04T06:03:46.479Z,33.75
2019-02-04T06:06:47.892Z,33.76
2019-02-04T06:09:49.267Z,33.76
2019-02-04T06:12:50.795Z,33.77
2019-02-04T06:15:52.262Z,33.77
2019-02-04T06:19:00.454Z,33.76
2019-02-04T06:21:57.016Z,33.77
2019-02-04T06:24:58.267Z,33.77
2019-02-04T06:28:00.025Z,33.75
2019-02-04T06:31:01.382Z,33.77
2019-02-04T06:34:03.169Z,33.75
2019-02-04T06:37:04.579Z,33.77
2019-02-04T06:40:07.755Z,33.79
2019-02-04T06:43:09.129Z,33.78
2019-02-04T06:46:10.507Z,33.78
2019-02-04T06:49:12.761Z,33.81
2019-02-04T06:52:14.095Z,33.80
2019-02-04T06:55:18.094Z,33.79
2019-02-04T06:58:19.471Z,33.80
2019-02-04T07:01:20.838Z,33.80
2019-02-04T07:04:22.147Z,33.79
2019-02-04T07:07:23.518Z,33.80
2019-02-04T07:10:25.515Z,33.81
2019-02-04T07:13:26.929Z,33.81
2019-02-04T07:16:28.303Z,33.82
2019-02-04T07:19:29.635Z,33.82
2019-02-04T07:22:31.011Z,33.83
2019-02-04T07:25:32.476Z,33.83
2019-02-04T07:28:33.686Z,33.83
2019-02-04T07:31:35.064Z,33.84
2019-02-04T07:34:36.510Z,33.83
2019-02-04T07:37:37.843Z,33.83
2019-02-04T07:40:39.220Z,33.84
2019-02-04T07:43:40.542Z,33.83
2019-02-04T07:46:41.916Z,33.85
2019-02-04T07:49:43.164Z,33.86
2019-02-04T07:52:44.791Z,33.85
2019-02-04T07:55:46.179Z,33.85
2019-02-04T07:58:47.611Z,33.86
2019-02-04T08:01:48.979Z,33.87
2019-02-04T08:04:50.384Z,33.86
2019-02-04T08:07:52.187Z,33.86
2019-02-04T08:10:53.443Z,33.87
2019-02-04T08:13:54.766Z,33.86
2019-02-04T08:16:56.150Z,33.86
2019-02-04T08:19:57.396Z,33.87
2019-02-04T08:22:58.726Z,33.86
2019-02-04T08:26:00.097Z,33.86
2019-02-04T08:29:01.531Z,33.86
2019-02-04T08:32:03.106Z,33.88
2019-02-04T08:35:05.106Z,33.88
2019-02-04T08:38:06.519Z,33.88
2019-02-04T08:41:08.294Z,33.89
2019-02-04T08:44:09.720Z,33.89
2019-02-04T08:47:22.338Z,33.88
2019-02-04T08:50:16.391Z,33.92
2019-02-04T08:53:17.768Z,33.89
2019-02-04T08:56:19.144Z,33.91
2019-02-04T08:59:20.572Z,33.90
2019-02-04T09:02:21.848Z,33.90
2019-02-04T09:05:23.823Z,33.91
2019-02-04T09:08:25.339Z,33.90
2019-02-04T09:11:26.818Z,33.92
2019-02-04T09:14:28.247Z,33.92
2019-02-04T09:17:29.635Z,33.93
2019-02-04T09:20:31.166Z,33.93
2019-02-04T09:23:32.395Z,33.94
2019-02-04T09:26:33.772Z,33.96
2019-02-04T09:29:35.330Z,33.96
2019-02-04T09:32:36.787Z,33.96
2019-02-04T09:35:38.235Z,33.95
2019-02-04T09:38:39.771Z,33.93
2019-02-04T09:41:41.043Z,33.94
2019-02-04T09:44:42.467Z,33.95
2019-02-04T09:47:44.157Z,33.96
2019-02-04T09:50:47.407Z,33.97
2019-02-04T09:53:49.378Z,33.98
2019-02-04T09:56:50.767Z,33.97
2019-02-04T09:59:52.338Z,33.97
2019-02-04T10:02:54.086Z,33.97
2019-02-04T10:05:55.560Z,33.97
2019-02-04T10:08:56.963Z,33.97
2019-02-04T10:11:58.334Z,33.98
2019-02-04T10:14:59.678Z,33.99
2019-02-04T10:18:01.148Z,33.99
2019-02-04T10:21:02.601Z,33.97
2019-02-04T10:24:04.050Z,33.98
2019-02-04T10:27:05.317Z,33.99
2019-02-04T10:30:10.605Z,34.00
2019-02-04T10:33:12.007Z,33.98
2019-02-04T10:36:13.453Z,33.98
2019-02-04T10:39:14.674Z,33.98
2019-02-04T10:42:16.047Z,33.99
2019-02-04T10:45:17.994Z,34.00
2019-02-04T10:48:19.386Z,33.99
2019-02-04T10:51:20.897Z,34.00
2019-02-04T10:54:22.283Z,34.00
2019-02-04T10:57:23.638Z,33.99
2019-02-04T11:00:27.184Z,33.99
2019-02-04T11:03:28.700Z,34.01
2019-02-04T11:06:30.135Z,34.00
2019-02-04T11:09:31.710Z,33.99
2019-02-04T11:12:33.956Z,34.00
2019-02-04T11:15:35.396Z,34.00
2019-02-04T11:18:36.799Z,34.03
2019-02-04T11:21:38.248Z,34.00
2019-02-04T11:24:39.646Z,34.00
2019-02-04T11:27:41.426Z,34.00
2019-02-04T11:30:54.628Z,34.02
2019-02-04T11:33:56.015Z,34.04
2019-02-04T11:36:57.497Z,34.01
2019-02-04T11:39:58.899Z,34.04
2019-02-04T11:43:00.326Z,34.01
2019-02-04T11:46:02.121Z,34.04
2019-02-04T11:49:03.586Z,34.01
2019-02-04T11:52:05.077Z,34.04
2019-02-04T11:55:07.360Z,34.06
2019-02-04T11:58:08.773Z,34.06
2019-02-04T12:01:10.198Z,34.05
2019-02-04T12:04:11.607Z,34.06
2019-02-04T12:07:13.027Z,34.05
2019-02-04T12:10:26.419Z,34.02
2019-02-04T12:13:27.815Z,34.06
2019-02-04T12:16:29.199Z,34.05
2019-02-04T12:19:30.490Z,34.05
2019-02-04T12:22:31.872Z,34.05
2019-02-04T12:25:33.295Z,34.05
2019-02-04T12:28:34.670Z,34.06
2019-02-04T12:31:36.223Z,34.06
2019-02-04T12:34:37.538Z,34.05
2019-02-04T12:37:39.339Z,34.07
2019-02-04T12:40:40.762Z,34.08
2019-02-04T12:43:42.240Z,34.08
2019-02-04T12:46:43.603Z,34.06
2019-02-04T12:49:45.030Z,34.07
2019-02-04T12:52:46.400Z,34.07
2019-02-04T12:55:47.829Z,34.06
2019-02-04T12:58:55.577Z,34.06
2019-02-04T13:01:52.498Z,34.08
2019-02-04T13:04:53.748Z,34.07
2019-02-04T13:07:55.198Z,34.08
2019-02-04T13:10:56.942Z,34.06
2019-02-04T13:13:58.317Z,34.08
2019-02-04T13:16:59.666Z,34.07
2019-02-04T13:20:01.099Z,34.07
2019-02-04T13:23:02.691Z,34.08
2019-02-04T13:26:04.405Z,34.06
2019-02-04T13:29:05.887Z,34.06
2019-02-04T13:32:07.138Z,34.07
2019-02-04T13:35:08.878Z,34.07
2019-02-04T13:38:10.246Z,34.07
2019-02-04T13:41:11.985Z,34.07
2019-02-04T13:44:13.575Z,34.08
2019-02-04T13:47:15.015Z,34.09
2019-02-04T13:50:18.663Z,34.07
2019-02-04T13:53:20.283Z,34.08
2019-02-04T13:56:21.607Z,34.08
2019-02-04T13:59:22.980Z,34.09
2019-02-04T14:02:24.232Z,34.08
2019-02-04T14:05:26.035Z,34.09
2019-02-04T14:08:27.461Z,34.08
2019-02-04T14:11:28.893Z,34.08
2019-02-04T14:14:30.147Z,34.09
2019-02-04T14:17:31.396Z,34.07
2019-02-04T14:20:32.832Z,34.09
2019-02-04T14:23:34.215Z,34.09
2019-02-04T14:26:35.628Z,34.09
2019-02-04T14:29:37.003Z,34.07
2019-02-04T14:32:38.367Z,34.09
2019-02-04T14:35:40.208Z,34.08
2019-02-04T14:38:41.574Z,34.10
2019-02-04T14:41:43.000Z,34.10
2019-02-04T14:45:06.667Z,34.09
2019-02-04T14:48:25.215Z,34.09
2019-02-04T14:51:52.967Z,34.12
2019-02-04T14:55:31.304Z,34.13
2019-02-04T14:58:48.836Z,34.16
2019-02-04T15:02:38.835Z,34.17
2019-02-04T15:06:15.024Z,34.19
2019-02-04T15:10:16.835Z,34.21
2019-02-04T15:13:48.112Z,34.21
2019-02-04T15:16:57.328Z,34.24
2019-02-04T15:20:36.540Z,34.23
2019-02-04T15:24:35.604Z,34.21
2019-02-04T15:28:17.776Z,34.23
2019-02-04T15:31:33.792Z,34.23
2019-02-04T15:35:06.483Z,34.24
2019-02-04T15:41:12.694Z,33.86
2019-02-04T15:45:06.580Z,34.82
2019-02-04T15:48:23.326Z,36.18
2019-02-04T15:51:31.481Z,37.23
2019-02-04T15:54:34.185Z,37.71
2019-02-04T15:57:35.723Z,37.89
2019-02-04T16:00:39.196Z,37.93
2019-02-04T16:03:41.544Z,37.83
2019-02-04T16:06:48.776Z,37.74
2019-02-04T16:09:52.785Z,37.66
2019-02-04T16:12:55.213Z,37.56
2019-02-04T16:15:56.774Z,37.46
2019-02-04T16:19:04.281Z,37.40
2019-02-04T16:22:06.245Z,37.32
2019-02-04T16:25:11.344Z,37.21
2019-02-04T16:28:13.736Z,37.19
2019-02-04T16:31:23.380Z,37.15
2019-02-04T16:34:24.913Z,37.14
2019-02-04T16:37:27.425Z,37.13
2019-02-04T16:40:28.842Z,37.10
2019-02-04T16:43:38.103Z,37.08
2019-02-04T16:46:39.553Z,37.05
2019-02-04T16:49:50.676Z,37.07
2019-02-04T16:53:09.962Z,37.07
2019-02-04T16:56:03.265Z,37.07
2019-02-04T16:59:11.480Z,37.08
2019-02-04T17:02:14.113Z,37.10
2019-02-04T17:08:53.480Z,37.11
2019-02-04T17:12:01.182Z,37.13
2019-02-04T17:15:17.728Z,37.15
2019-02-04T17:18:19.389Z,37.18
2019-02-04T17:21:23.376Z,37.20
2019-02-04T17:24:29.444Z,37.20
2019-02-04T17:27:41.570Z,37.23
2019-02-04T17:30:43.012Z,37.25
2019-02-04T17:34:04.617Z,37.28
2019-02-04T17:37:16.715Z,37.28
2019-02-04T17:40:32.650Z,37.34
2019-02-04T17:43:34.207Z,37.36
2019-02-04T17:47:03.121Z,37.42
2019-02-04T17:50:20.188Z,37.46
2019-02-04T17:53:34.187Z,37.53
2019-02-04T17:56:36.215Z,37.59
2019-02-04T17:59:48.556Z,37.66
2019-02-04T18:02:50.110Z,37.70
2019-02-04T18:05:51.469Z,37.76
2019-02-04T18:08:52.934Z,37.77
2019-02-04T18:12:12.793Z,37.80
2019-02-04T18:15:15.715Z,37.83
2019-02-04T18:18:20.197Z,37.88
2019-02-04T18:21:27.793Z,37.93
2019-02-04T18:24:47.393Z,37.95
2019-02-04T18:27:49.793Z,37.99
2019-02-04T18:31:01.390Z,38.05
2019-02-04T18:34:09.044Z,38.10
2019-02-04T18:37:10.503Z,38.12
2019-02-04T18:40:13.128Z,38.16
2019-02-04T18:43:14.723Z,38.18
2019-02-04T18:46:22.109Z,38.20
2019-02-04T18:49:30.349Z,38.22
2019-02-04T18:52:31.791Z,38.23
2019-02-04T18:55:35.181Z,38.28
2019-02-04T18:58:43.613Z,38.33
2019-02-04T19:01:57.119Z,38.35
2019-02-04T19:04:59.568Z,38.37
2019-02-04T19:08:00.964Z,38.42
2019-02-04T19:11:36.150Z,38.44
2019-02-04T19:14:54.863Z,38.50
2019-02-04T19:18:07.648Z,38.55
2019-02-04T19:21:38.315Z,38.59
2019-02-04T19:24:39.822Z,38.65
2019-02-04T19:27:50.600Z,38.68
2019-02-04T19:30:58.925Z,38.69
2019-02-04T19:34:09.516Z,38.72
2019-02-04T19:37:35.680Z,38.74
2019-02-04T19:41:01.973Z,38.78
2019-02-04T19:44:04.542Z,38.83
2019-02-04T19:47:12.170Z,38.87
2019-02-04T19:50:22.303Z,38.91
2019-02-04T19:53:29.953Z,38.93
2019-02-04T19:56:31.375Z,38.96
2019-02-04T19:59:35.397Z,38.97
2019-02-04T20:02:45.976Z,38.98
2019-02-04T20:05:59.160Z,39.02
2019-02-04T20:09:10.419Z,39.04
2019-02-04T20:12:22.359Z,39.07
2019-02-04T20:15:45.959Z,39.12
2019-02-04T20:18:47.642Z,39.14
2019-02-04T20:21:52.443Z,39.19
2019-02-04T20:25:03.896Z,39.22
2019-02-04T20:28:11.261Z,39.25
2019-02-04T20:31:14.754Z,39.27
2019-02-04T20:34:26.000Z,39.29
2019-02-04T20:37:45.917Z,39.31
2019-02-04T20:40:47.517Z,39.36
2019-02-04T20:44:07.869Z,39.38
2019-02-04T20:47:09.392Z,39.39
2019-02-04T20:50:23.012Z,39.46
2019-02-04T20:53:27.047Z,39.47
2019-02-04T20:56:28.390Z,39.48
2019-02-04T20:59:39.473Z,39.50
2019-02-04T21:02:56.494Z,39.52
2019-02-04T21:06:04.881Z,39.56
2019-02-04T21:09:28.360Z,39.61
2019-02-04T21:12:35.903Z,39.62
2019-02-04T21:15:53.920Z,39.67
2019-02-04T21:18:57.347Z,39.71
2019-02-04T21:22:03.464Z,39.71
2019-02-04T21:25:06.958Z,39.74
2019-02-04T21:28:10.405Z,39.73
2019-02-04T21:31:17.855Z,39.74
2019-02-04T21:34:25.499Z,39.78
2019-02-04T21:37:26.832Z,39.81
2019-02-04T21:40:34.283Z,39.86
2019-02-04T21:43:52.742Z,39.87
2019-02-04T21:46:55.584Z,39.90
2019-02-04T21:49:59.943Z,39.91
2019-02-04T21:53:08.049Z,39.95
2019-02-04T21:56:10.690Z,39.96
2019-02-04T21:59:12.729Z,39.99
2019-02-04T22:02:17.169Z,40.00
2019-02-04T22:05:20.773Z,40.05
2019-02-04T22:08:34.218Z,40.08
2019-02-04T22:11:35.720Z,40.07
2019-02-04T22:14:46.533Z,40.09
2019-02-04T22:17:56.120Z,40.11
2019-02-04T22:21:04.629Z,40.12
2019-02-04T22:24:06.069Z,40.16
2019-02-04T22:27:07.539Z,40.18
2019-02-04T22:30:17.722Z,40.21
2019-02-04T22:33:20.155Z,40.19
2019-02-04T22:36:23.852Z,40.21
2019-02-04T22:39:25.457Z,40.23
2019-02-04T22:42:26.821Z,40.24
2019-02-04T22:45:31.841Z,40.26
2019-02-04T22:48:37.844Z,40.26
2019-02-04T22:52:00.999Z,40.28
2019-02-04T22:55:11.110Z,40.31
2019-02-04T22:58:15.836Z,40.35
2019-02-04T23:01:47.120Z,40.38
2019-02-04T23:05:05.396Z,40.39
2019-02-04T23:08:13.288Z,40.41
2019-02-04T23:11:28.097Z,40.43
2019-02-04T23:14:31.468Z,40.45
2019-02-04T23:17:37.851Z,40.48
2019-02-04T23:20:41.826Z,40.49
2019-02-04T23:23:47.153Z,40.49
2019-02-04T23:26:50.477Z,40.51
2019-02-04T23:29:54.913Z,40.52
2019-02-04T23:32:56.388Z,40.54
2019-02-04T23:36:03.700Z,40.56
2019-02-04T23:39:07.799Z,40.58
2019-02-04T23:42:11.571Z,40.58
2019-02-04T23:45:14.291Z,40.59
2019-02-04T23:48:17.108Z,40.61
2019-02-04T23:51:21.570Z,40.65
2019-02-04T23:54:24.863Z,40.65
2019-02-04T23:57:50.674Z,40.69
